createdAt,value
2023-09-02T00:00:01.184Z,96078.56
2023-09-02T00:01:02.805Z,96072.25
2023-09-02T00:02:04.673Z,96075.75
2023-09-02T00:04:08.994Z,96077.97
2023-09-02T00:05:10.708Z,96069.19
2023-09-02T00:06:12.322Z,96072.28
2023-09-02T00:07:13.912Z,96064.72
2023-09-02T00:08:15.494Z,96067.47
2023-09-02T00:09:17.116Z,96071.66
2023-09-02T00:10:18.840Z,96070.78
2023-09-02T00:11:20.427Z,96068.28
2023-09-02T00:12:22.007Z,96073.25
2023-09-02T00:13:24.045Z,96072.84
2023-09-02T00:14:25.629Z,96073.72
2023-09-02T00:15:27.217Z,96068.56
2023-09-02T00:16:28.895Z,96075.22
2023-09-02T00:17:32.852Z,96066.16
2023-09-02T00:18:34.515Z,96073.53
2023-09-02T00:19:36.120Z,96074.09
2023-09-02T00:20:37.712Z,96076.66
2023-09-02T00:21:39.346Z,96066.78
2023-09-02T00:22:41.693Z,96079.34
2023-09-02T00:23:46.288Z,96074.97
2023-09-02T00:24:48.037Z,96076.31
2023-09-02T00:25:49.598Z,96075.66
2023-09-02T00:26:51.178Z,96074.81
2023-09-02T00:27:53.321Z,96078.06
2023-09-02T00:28:54.894Z,96079.78
2023-09-02T00:29:56.699Z,96069.00
2023-09-02T00:30:58.285Z,96082.88
2023-09-02T00:31:59.896Z,96077.34
2023-09-02T00:33:02.014Z,96080.84
2023-09-02T00:34:03.712Z,96078.72
2023-09-02T00:35:05.766Z,96078.19
2023-09-02T00:36:07.618Z,96080.13
2023-09-02T00:37:09.375Z,96082.28
2023-09-02T00:38:10.959Z,96077.00
2023-09-02T00:39:12.548Z,96090.09
2023-09-02T00:40:17.373Z,96091.97
2023-09-02T00:41:40.365Z,96083.78
2023-09-02T00:42:42.489Z,96082.00
2023-09-02T00:43:44.090Z,96087.06
2023-09-02T00:44:45.660Z,96082.78
2023-09-02T00:45:47.384Z,96078.72
2023-09-02T00:46:49.004Z,96082.09
2023-09-02T00:47:51.283Z,96084.22
2023-09-02T00:48:52.894Z,96076.66
2023-09-02T00:49:54.497Z,96077.72
2023-09-02T00:50:56.161Z,96071.84
2023-09-02T00:51:57.701Z,96069.88
2023-09-02T00:52:59.342Z,96077.09
2023-09-02T00:54:00.971Z,96079.63
2023-09-02T00:55:03.290Z,96079.31
2023-09-02T00:56:05.342Z,96081.91
2023-09-02T00:57:07.402Z,96070.09
2023-09-02T00:58:09.006Z,96071.56
2023-09-02T00:59:10.676Z,96077.00
2023-09-02T01:00:14.497Z,96077.75
2023-09-02T01:01:16.438Z,96081.81
2023-09-02T01:02:18.390Z,96080.75
2023-09-02T01:03:20.423Z,96085.28
2023-09-02T01:04:22.741Z,96081.66
2023-09-02T01:05:24.441Z,96080.03
2023-09-02T01:06:26.147Z,96077.75
2023-09-02T01:07:27.757Z,96077.63
2023-09-02T01:08:34.511Z,96086.50
2023-09-02T01:09:36.125Z,96088.03
2023-09-02T01:10:38.487Z,96083.25
2023-09-02T01:11:40.098Z,96082.28
2023-09-02T01:12:41.823Z,96080.66
2023-09-02T01:13:43.404Z,96085.28
2023-09-02T01:14:45.363Z,96080.38
2023-09-02T01:15:47.005Z,96089.72
2023-09-02T01:16:48.768Z,96081.25
2023-09-02T01:17:50.486Z,96079.69
2023-09-02T01:18:52.089Z,96088.19
2023-09-02T01:19:58.032Z,96081.78
2023-09-02T01:21:20.795Z,96086.94
2023-09-02T01:22:45.275Z,96089.09
2023-09-02T01:24:08.659Z,96089.44
2023-09-02T01:25:18.694Z,96096.13
2023-09-02T01:26:31.130Z,96089.00
2023-09-02T01:27:36.850Z,96085.72
2023-09-02T01:28:41.581Z,96083.34
2023-09-02T01:30:08.017Z,96086.69
2023-09-02T01:31:11.536Z,96078.09
2023-09-02T01:32:14.323Z,96083.97
2023-09-02T01:33:17.094Z,96085.22
2023-09-02T01:34:20.114Z,96081.53
2023-09-02T01:35:26.091Z,96094.75
2023-09-02T01:36:29.222Z,96087.53
2023-09-02T01:37:36.216Z,96090.59
2023-09-02T01:38:37.826Z,96095.72
2023-09-02T01:39:40.423Z,96093.03
2023-09-02T01:40:43.777Z,96101.06
2023-09-02T01:41:45.864Z,96091.16
2023-09-02T01:42:48.041Z,96093.75
2023-09-02T01:43:49.869Z,96090.09
2023-09-02T01:44:51.774Z,96088.72
2023-09-02T01:45:54.012Z,96083.16
2023-09-02T01:46:56.894Z,96087.66
2023-09-02T01:47:59.188Z,96088.13
2023-09-02T01:49:00.817Z,96090.63
2023-09-02T01:50:06.044Z,96090.16
2023-09-02T01:51:08.235Z,96086.50
2023-09-02T01:52:09.906Z,96084.09
2023-09-02T01:53:11.817Z,96091.50
2023-09-02T01:54:13.607Z,96093.09
2023-09-02T01:55:19.336Z,96100.19
2023-09-02T01:56:21.017Z,96093.81
2023-09-02T01:57:22.814Z,96094.97
2023-09-02T01:58:24.709Z,96091.91
2023-09-02T01:59:27.038Z,96094.00
2023-09-02T02:00:29.380Z,96088.41
2023-09-02T02:01:31.546Z,96091.78
2023-09-02T02:02:33.283Z,96093.72
2023-09-02T02:03:38.035Z,96091.53
2023-09-02T02:04:40.606Z,96092.34
2023-09-02T02:05:44.169Z,96091.34
2023-09-02T02:06:47.152Z,96083.81
2023-09-02T02:07:53.490Z,96088.72
2023-09-02T02:09:04.499Z,96086.25
2023-09-02T02:10:08.884Z,96090.63
2023-09-02T02:11:10.488Z,96092.25
2023-09-02T02:12:12.119Z,96087.75
2023-09-02T02:13:14.090Z,96090.50
2023-09-02T02:14:15.645Z,96088.13
2023-09-02T02:15:17.918Z,96093.91
2023-09-02T02:16:23.344Z,96092.22
2023-09-02T02:17:25.733Z,96094.81
2023-09-02T02:18:27.293Z,96093.31
2023-09-02T02:19:28.913Z,96098.06
2023-09-02T02:20:40.366Z,96091.25
2023-09-02T02:21:42.156Z,96089.56
2023-09-02T02:22:43.815Z,96095.66
2023-09-02T02:23:45.423Z,96094.22
2023-09-02T02:24:47.024Z,96096.25
2023-09-02T02:25:48.604Z,96093.47
2023-09-02T02:26:50.197Z,96088.78
2023-09-02T02:27:51.735Z,96090.81
2023-09-02T02:28:55.019Z,96090.47
2023-09-02T02:29:57.178Z,96086.59
2023-09-02T02:30:59.869Z,96098.91
2023-09-02T02:32:02.520Z,96095.63
2023-09-02T02:33:05.161Z,96099.84
2023-09-02T02:34:06.764Z,96100.09
2023-09-02T02:35:08.665Z,96092.13
2023-09-02T02:36:11.356Z,96097.41
2023-09-02T02:37:12.917Z,96092.53
2023-09-02T02:38:14.516Z,96096.50
2023-09-02T02:39:16.212Z,96090.47
2023-09-02T02:40:17.781Z,96100.19
2023-09-02T02:41:19.359Z,96091.34
2023-09-02T02:42:23.614Z,96099.63
2023-09-02T02:43:27.235Z,96094.13
2023-09-02T02:44:28.824Z,96090.59
2023-09-02T02:45:30.408Z,96093.78
2023-09-02T02:46:32.130Z,96093.28
2023-09-02T02:47:33.807Z,96092.03
2023-09-02T02:48:35.496Z,96089.38
2023-09-02T02:49:37.189Z,96089.09
2023-09-02T02:50:38.893Z,96098.38
2023-09-02T02:51:40.618Z,96097.88
2023-09-02T02:52:42.367Z,96099.38
2023-09-02T02:53:44.058Z,96105.53
2023-09-02T02:54:45.802Z,96093.38
2023-09-02T02:55:47.440Z,96098.53
2023-09-02T02:56:49.096Z,96094.19
2023-09-02T02:57:50.840Z,96090.63
2023-09-02T02:58:52.727Z,96103.25
2023-09-02T02:59:54.370Z,96096.25
2023-09-02T03:01:06.865Z,96094.81
2023-09-02T03:02:08.671Z,96098.13
2023-09-02T03:03:13.951Z,96096.31
2023-09-02T03:04:15.695Z,96096.13
2023-09-02T03:05:20.151Z,96093.88
2023-09-02T03:06:21.810Z,96097.03
2023-09-02T03:07:23.657Z,96089.75
2023-09-02T03:08:25.314Z,96102.13
2023-09-02T03:09:26.888Z,96103.47
2023-09-02T03:10:28.533Z,96094.59
2023-09-02T03:11:30.190Z,96099.13
2023-09-02T03:12:32.897Z,96098.75
2023-09-02T03:13:37.622Z,96102.06
2023-09-02T03:14:48.026Z,96100.22
2023-09-02T03:15:51.176Z,96098.03
2023-09-02T03:16:53.436Z,96100.78
2023-09-02T03:17:55.400Z,96105.06
2023-09-02T03:18:59.475Z,96105.38
2023-09-02T03:20:04.935Z,96105.34
2023-09-02T03:21:08.556Z,96101.03
2023-09-02T03:22:11.744Z,96106.75
2023-09-02T03:23:14.225Z,96101.25
2023-09-02T03:24:16.960Z,96101.94
2023-09-02T03:25:18.624Z,96098.25
2023-09-02T03:26:21.256Z,96103.63
2023-09-02T03:27:25.572Z,96107.91
2023-09-02T03:28:27.365Z,96107.63
2023-09-02T03:29:29.704Z,96106.03
2023-09-02T03:30:33.653Z,96104.34
2023-09-02T03:31:35.442Z,96105.31
2023-09-02T03:32:38.755Z,96102.19
2023-09-02T03:33:40.469Z,96100.66
2023-09-02T03:34:43.631Z,96099.78
2023-09-02T03:35:45.773Z,96099.38
2023-09-02T03:36:47.385Z,96104.28
2023-09-02T03:37:49.097Z,96098.13
2023-09-02T03:38:50.915Z,96103.50
2023-09-02T03:39:54.404Z,96100.28
2023-09-02T03:40:57.079Z,96107.97
2023-09-02T03:41:58.647Z,96098.59
2023-09-02T03:43:00.255Z,96101.59
2023-09-02T03:44:01.912Z,96109.13
2023-09-02T03:45:06.759Z,96103.81
2023-09-02T03:46:08.524Z,96100.19
2023-09-02T03:47:10.459Z,96103.72
2023-09-02T03:48:13.053Z,96104.44
2023-09-02T03:49:14.954Z,96109.00
2023-09-02T03:50:25.212Z,96102.47
2023-09-02T03:51:27.790Z,96103.63
2023-09-02T03:52:33.058Z,96093.66
2023-09-02T03:53:34.769Z,96101.00
2023-09-02T03:54:37.577Z,96099.94
2023-09-02T03:55:39.404Z,96096.53
2023-09-02T03:56:42.999Z,96098.03
2023-09-02T03:57:44.638Z,96103.72
2023-09-02T03:58:46.244Z,96094.91
2023-09-02T03:59:49.284Z,96099.72
2023-09-02T04:00:51.001Z,96100.06
2023-09-02T04:01:53.094Z,96107.03
2023-09-02T04:02:54.784Z,96105.75
2023-09-02T04:03:56.508Z,96113.41
2023-09-02T04:04:58.266Z,96117.31
2023-09-02T04:06:00.999Z,96116.47
2023-09-02T04:07:04.477Z,96116.63
2023-09-02T04:08:06.406Z,96122.47
2023-09-02T04:09:11.031Z,96121.44
2023-09-02T04:10:12.724Z,96125.56
2023-09-02T04:11:14.380Z,96121.94
2023-09-02T04:12:16.009Z,96126.28
2023-09-02T04:13:17.958Z,96126.22
2023-09-02T04:14:19.837Z,96126.50
2023-09-02T04:15:21.452Z,96133.88
2023-09-02T04:16:23.114Z,96134.34
2023-09-02T04:17:25.030Z,96130.56
2023-09-02T04:18:26.858Z,96127.34
2023-09-02T04:19:29.048Z,96137.56
2023-09-02T04:20:31.323Z,96139.41
2023-09-02T04:21:33.408Z,96133.19
2023-09-02T04:22:35.051Z,96134.31
2023-09-02T04:23:37.124Z,96130.44
2023-09-02T04:24:44.565Z,96131.13
2023-09-02T04:25:50.566Z,96133.00
2023-09-02T04:26:53.143Z,96135.63
2023-09-02T04:27:54.742Z,96132.66
2023-09-02T04:28:57.013Z,96135.72
2023-09-02T04:30:00.290Z,96125.72
2023-09-02T04:31:04.143Z,96134.88
2023-09-02T04:32:08.071Z,96131.53
2023-09-02T04:33:10.469Z,96130.28
2023-09-02T04:34:13.264Z,96129.50
2023-09-02T04:35:15.914Z,96134.88
2023-09-02T04:36:17.905Z,96121.44
2023-09-02T04:37:19.904Z,96139.38
2023-09-02T04:38:21.663Z,96137.75
2023-09-02T04:39:26.268Z,96131.72
2023-09-02T04:40:27.886Z,96137.41
2023-09-02T04:41:29.510Z,96142.44
2023-09-02T04:42:34.802Z,96139.00
2023-09-02T04:43:38.900Z,96136.66
2023-09-02T04:44:40.680Z,96141.03
2023-09-02T04:45:43.152Z,96144.34
2023-09-02T04:46:47.419Z,96147.28
2023-09-02T04:47:50.220Z,96148.59
2023-09-02T04:48:53.955Z,96145.97
2023-09-02T04:49:56.797Z,96140.00
2023-09-02T04:51:00.015Z,96139.50
2023-09-02T04:52:05.035Z,96143.53
2023-09-02T04:53:08.668Z,96134.78
2023-09-02T04:54:13.063Z,96148.78
2023-09-02T04:55:14.704Z,96148.78
2023-09-02T04:56:16.342Z,96153.31
2023-09-02T04:57:20.350Z,96147.34
2023-09-02T04:58:24.101Z,96137.53
2023-09-02T04:59:27.355Z,96139.06
2023-09-02T05:00:29.619Z,96146.41
2023-09-02T05:01:31.683Z,96149.63
2023-09-02T05:02:34.579Z,96149.91
2023-09-02T05:03:36.227Z,96139.41
2023-09-02T05:04:37.810Z,96145.72
2023-09-02T05:05:39.475Z,96151.25
2023-09-02T05:06:43.976Z,96148.69
2023-09-02T05:07:46.396Z,96156.03
2023-09-02T05:08:55.144Z,96152.31
2023-09-02T05:09:58.020Z,96153.28
2023-09-02T05:11:00.118Z,96154.16
2023-09-02T05:12:02.064Z,96152.38
2023-09-02T05:13:04.035Z,96150.38
2023-09-02T05:14:07.312Z,96161.28
2023-09-02T05:15:09.738Z,96158.00
2023-09-02T05:16:12.394Z,96161.13
2023-09-02T05:17:14.102Z,96154.75
2023-09-02T05:18:15.692Z,96160.88
2023-09-02T05:19:17.326Z,96161.47
2023-09-02T05:20:19.050Z,96158.13
2023-09-02T05:21:20.723Z,96160.75
2023-09-02T05:22:23.420Z,96154.56
2023-09-02T05:23:25.214Z,96153.25
2023-09-02T05:24:28.544Z,96150.06
2023-09-02T05:25:30.275Z,96150.34
2023-09-02T05:26:33.648Z,96156.91
2023-09-02T05:27:37.638Z,96152.38
2023-09-02T05:28:39.245Z,96155.44
2023-09-02T05:29:40.919Z,96156.22
2023-09-02T05:30:42.510Z,96158.66
2023-09-02T05:31:44.178Z,96155.88
2023-09-02T05:32:45.877Z,96157.31
2023-09-02T05:33:48.144Z,96166.50
2023-09-02T05:34:49.860Z,96165.94
2023-09-02T05:35:52.613Z,96171.56
2023-09-02T05:36:54.216Z,96172.91
2023-09-02T05:37:55.935Z,96173.50
2023-09-02T05:38:57.550Z,96176.00
2023-09-02T05:39:59.273Z,96176.56
2023-09-02T05:41:00.966Z,96175.63
2023-09-02T05:42:02.558Z,96172.63
2023-09-02T05:43:04.417Z,96178.00
2023-09-02T05:44:06.367Z,96174.22
2023-09-02T05:45:08.379Z,96177.78
2023-09-02T05:46:10.002Z,96178.22
2023-09-02T05:47:14.088Z,96180.72
2023-09-02T05:48:16.092Z,96182.97
2023-09-02T05:49:17.632Z,96177.00
2023-09-02T05:50:19.280Z,96181.25
2023-09-02T05:51:20.911Z,96176.72
2023-09-02T05:52:22.508Z,96173.50
2023-09-02T05:53:24.227Z,96188.03
2023-09-02T05:54:25.847Z,96180.69
2023-09-02T05:55:27.476Z,96174.44
2023-09-02T05:56:29.137Z,96183.84
2023-09-02T05:57:30.733Z,96184.56
2023-09-02T05:58:32.358Z,96188.06
2023-09-02T05:59:33.994Z,96184.94
2023-09-02T06:00:37.356Z,96178.84
2023-09-02T06:01:39.084Z,96179.31
2023-09-02T06:02:40.816Z,96180.16
2023-09-02T06:03:43.277Z,96188.59
2023-09-02T06:04:44.953Z,96179.59
2023-09-02T06:05:46.613Z,96186.19
2023-09-02T06:06:48.223Z,96189.88
2023-09-02T06:07:49.809Z,96191.94
2023-09-02T06:08:51.512Z,96185.22
2023-09-02T06:09:53.130Z,96190.19
2023-09-02T06:11:01.177Z,96187.16
2023-09-02T06:12:02.836Z,96190.00
2023-09-02T06:13:04.638Z,96188.44
2023-09-02T06:14:06.217Z,96188.75
2023-09-02T06:15:08.439Z,96183.81
2023-09-02T06:16:10.030Z,96190.78
2023-09-02T06:17:11.688Z,96180.88
2023-09-02T06:18:13.232Z,96180.59
2023-09-02T06:19:14.838Z,96177.75
2023-09-02T06:20:17.371Z,96174.06
2023-09-02T06:21:19.085Z,96178.13
2023-09-02T06:22:20.731Z,96175.66
2023-09-02T06:23:26.863Z,96177.25
2023-09-02T06:24:28.801Z,96181.03
2023-09-02T06:25:30.453Z,96180.25
2023-09-02T06:26:32.485Z,96184.72
2023-09-02T06:27:34.061Z,96186.81
2023-09-02T06:28:35.738Z,96188.44
2023-09-02T06:29:38.491Z,96190.75
2023-09-02T06:30:40.192Z,96189.69
2023-09-02T06:31:41.906Z,96195.81
2023-09-02T06:32:43.550Z,96188.38
2023-09-02T06:33:45.328Z,96191.94
2023-09-02T06:34:46.992Z,96192.84
2023-09-02T06:35:49.835Z,96193.34
2023-09-02T06:36:51.423Z,96196.06
2023-09-02T06:37:53.088Z,96191.06
2023-09-02T06:38:54.694Z,96195.22
2023-09-02T06:39:56.361Z,96194.16
2023-09-02T06:40:57.929Z,96199.41
2023-09-02T06:41:59.535Z,96202.44
2023-09-02T06:43:05.067Z,96194.06
2023-09-02T06:44:06.703Z,96196.69
2023-09-02T06:45:09.015Z,96188.84
2023-09-02T06:46:18.413Z,96195.84
2023-09-02T06:47:20.156Z,96183.28
2023-09-02T06:48:21.752Z,96191.97
2023-09-02T06:49:23.417Z,96195.28
2023-09-02T06:50:25.098Z,96188.97
2023-09-02T06:51:26.767Z,96195.81
2023-09-02T06:52:28.396Z,96194.66
2023-09-02T06:53:29.979Z,96206.88
2023-09-02T06:54:31.571Z,96199.09
2023-09-02T06:55:33.143Z,96198.84
2023-09-02T06:56:34.752Z,96204.44
2023-09-02T06:57:36.453Z,96207.25
2023-09-02T06:58:39.511Z,96210.09
2023-09-02T06:59:41.193Z,96204.94
2023-09-02T07:00:42.835Z,96203.34
2023-09-02T07:01:44.808Z,96208.97
2023-09-02T07:02:46.489Z,96204.25
2023-09-02T07:03:48.184Z,96201.44
2023-09-02T07:04:50.488Z,96205.00
2023-09-02T07:05:52.157Z,96200.22
2023-09-02T07:06:53.775Z,96207.25
2023-09-02T07:07:55.421Z,96205.09
2023-09-02T07:08:57.014Z,96204.47
2023-09-02T07:09:59.186Z,96213.28
2023-09-02T07:11:00.748Z,96201.88
2023-09-02T07:12:02.314Z,96200.97
2023-09-02T07:13:04.068Z,96201.59
2023-09-02T07:14:05.738Z,96207.41
2023-09-02T07:15:08.145Z,96217.16
2023-09-02T07:16:10.100Z,96207.63
2023-09-02T07:17:11.684Z,96209.91
2023-09-02T07:18:13.384Z,96208.19
2023-09-02T07:19:15.044Z,96211.38
2023-09-02T07:20:16.735Z,96210.13
2023-09-02T07:21:23.530Z,96210.34
2023-09-02T07:22:25.646Z,96211.38
2023-09-02T07:23:28.086Z,96214.19
2023-09-02T07:24:30.118Z,96211.84
2023-09-02T07:25:31.723Z,96214.38
2023-09-02T07:26:33.595Z,96202.34
2023-09-02T07:27:35.173Z,96204.28
2023-09-02T07:28:38.734Z,96207.09
2023-09-02T07:29:40.305Z,96212.06
2023-09-02T07:30:41.910Z,96216.44
2023-09-02T07:31:43.563Z,96209.78
2023-09-02T07:32:45.337Z,96214.16
2023-09-02T07:33:46.986Z,96218.28
2023-09-02T07:34:48.807Z,96211.13
2023-09-02T07:35:50.431Z,96219.19
2023-09-02T07:36:52.037Z,96215.34
2023-09-02T07:37:53.663Z,96216.31
2023-09-02T07:38:55.284Z,96222.31
2023-09-02T07:39:56.911Z,96216.59
2023-09-02T07:40:58.572Z,96213.25
2023-09-02T07:42:00.193Z,96224.81
2023-09-02T07:43:03.401Z,96224.59
2023-09-02T07:44:05.291Z,96224.31
2023-09-02T07:45:07.525Z,96230.03
2023-09-02T07:46:11.462Z,96223.66
2023-09-02T07:47:13.234Z,96217.50
2023-09-02T07:48:15.005Z,96221.28
2023-09-02T07:49:16.640Z,96226.09
2023-09-02T07:50:18.224Z,96225.03
2023-09-02T07:51:19.910Z,96223.00
2023-09-02T07:52:21.462Z,96222.66
2023-09-02T07:53:23.065Z,96225.63
2023-09-02T07:54:24.799Z,96230.53
2023-09-02T07:55:27.112Z,96223.16
2023-09-02T07:56:29.112Z,96233.00
2023-09-02T07:57:32.065Z,96228.91
2023-09-02T07:58:33.688Z,96235.47
2023-09-02T07:59:35.318Z,96226.69
2023-09-02T08:00:37.826Z,96232.59
2023-09-02T08:01:39.591Z,96229.31
2023-09-02T08:02:41.378Z,96229.69
2023-09-02T08:03:43.032Z,96232.41
2023-09-02T08:04:44.637Z,96231.63
2023-09-02T08:05:46.277Z,96234.94
2023-09-02T08:06:47.994Z,96230.44
2023-09-02T08:07:49.547Z,96243.72
2023-09-02T08:08:53.658Z,96237.34
2023-09-02T08:09:55.219Z,96239.91
2023-09-02T08:11:06.782Z,96235.69
2023-09-02T08:12:09.317Z,96235.06
2023-09-02T08:13:10.974Z,96239.56
2023-09-02T08:14:12.669Z,96236.59
2023-09-02T08:15:15.027Z,96234.81
2023-09-02T08:16:16.836Z,96245.19
2023-09-02T08:17:20.650Z,96240.31
2023-09-02T08:18:22.704Z,96234.28
2023-09-02T08:19:24.337Z,96238.19
2023-09-02T08:20:26.616Z,96237.03
2023-09-02T08:21:28.309Z,96238.22
2023-09-02T08:22:29.931Z,96235.25
2023-09-02T08:23:31.560Z,96239.84
2023-09-02T08:24:33.180Z,96237.44
2023-09-02T08:25:34.984Z,96239.38
2023-09-02T08:26:37.093Z,96245.69
2023-09-02T08:27:38.732Z,96242.47
2023-09-02T08:28:41.110Z,96241.00
2023-09-02T08:29:42.751Z,96240.72
2023-09-02T08:30:45.064Z,96239.13
2023-09-02T08:31:46.699Z,96239.91
2023-09-02T08:32:48.506Z,96244.56
2023-09-02T08:33:50.302Z,96248.47
2023-09-02T08:34:52.726Z,96252.03
2023-09-02T08:35:54.340Z,96253.88
2023-09-02T08:36:55.962Z,96252.53
2023-09-02T08:37:57.611Z,96254.91
2023-09-02T08:38:59.259Z,96251.41
2023-09-02T08:40:00.914Z,96252.22
2023-09-02T08:41:03.170Z,96246.72
2023-09-02T08:42:05.853Z,96255.25
2023-09-02T08:43:07.482Z,96254.59
2023-09-02T08:44:11.100Z,96260.69
2023-09-02T08:45:14.560Z,96256.63
2023-09-02T08:46:18.033Z,96254.69
2023-09-02T08:47:21.202Z,96254.47
2023-09-02T08:48:27.034Z,96252.78
2023-09-02T08:49:28.884Z,96266.06
2023-09-02T08:50:30.620Z,96249.75
2023-09-02T08:51:32.671Z,96256.56
2023-09-02T08:52:34.218Z,96263.53
2023-09-02T08:53:35.829Z,96266.13
2023-09-02T08:54:38.502Z,96258.16
2023-09-02T08:55:41.549Z,96261.97
2023-09-02T08:56:43.863Z,96260.69
2023-09-02T08:57:45.887Z,96261.38
2023-09-02T08:58:47.912Z,96261.81
2023-09-02T08:59:49.506Z,96265.25
2023-09-02T09:00:51.178Z,96255.13
2023-09-02T09:01:53.529Z,96260.94
2023-09-02T09:02:55.442Z,96257.06
2023-09-02T09:03:57.360Z,96262.28
2023-09-02T09:05:03.118Z,96257.31
2023-09-02T09:06:06.256Z,96258.56
2023-09-02T09:07:09.695Z,96259.81
2023-09-02T09:08:11.680Z,96260.41
2023-09-02T09:09:14.338Z,96257.97
2023-09-02T09:10:17.082Z,96259.25
2023-09-02T09:11:19.091Z,96255.78
2023-09-02T09:12:21.871Z,96266.88
2023-09-02T09:13:24.461Z,96267.59
2023-09-02T09:14:28.066Z,96265.13
2023-09-02T09:15:29.717Z,96263.06
2023-09-02T09:16:34.424Z,96275.13
2023-09-02T09:17:36.239Z,96273.03
2023-09-02T09:18:38.079Z,96266.59
2023-09-02T09:19:39.924Z,96269.25
2023-09-02T09:20:41.760Z,96269.94
2023-09-02T09:21:43.338Z,96267.59
2023-09-02T09:22:44.987Z,96267.91
2023-09-02T09:23:46.604Z,96265.81
2023-09-02T09:24:48.239Z,96273.78
2023-09-02T09:25:52.574Z,96268.28
2023-09-02T09:26:54.218Z,96260.16
2023-09-02T09:28:10.972Z,96267.84
2023-09-02T09:29:17.100Z,96263.22
2023-09-02T09:30:29.329Z,96265.97
2023-09-02T09:31:30.988Z,96263.41
2023-09-02T09:32:33.110Z,96262.44
2023-09-02T09:33:34.734Z,96259.00
2023-09-02T09:34:41.251Z,96266.78
2023-09-02T09:35:42.806Z,96264.31
2023-09-02T09:36:45.344Z,96265.44
2023-09-02T09:37:56.586Z,96264.03
2023-09-02T09:39:00.746Z,96263.91
2023-09-02T09:40:02.847Z,96264.94
2023-09-02T09:41:06.796Z,96259.41
2023-09-02T09:42:08.781Z,96260.81
2023-09-02T09:43:18.252Z,96262.84
2023-09-02T09:44:20.193Z,96264.94
2023-09-02T09:45:21.891Z,96260.81
2023-09-02T09:46:23.607Z,96258.97
2023-09-02T09:47:26.867Z,96264.84
2023-09-02T09:48:28.507Z,96258.16
2023-09-02T09:49:31.648Z,96259.59
2023-09-02T09:50:33.203Z,96262.59
2023-09-02T09:51:34.830Z,96265.63
2023-09-02T09:52:36.412Z,96265.13
2023-09-02T09:53:47.306Z,96259.44
2023-09-02T09:54:53.327Z,96260.84
2023-09-02T09:55:55.116Z,96255.94
2023-09-02T09:56:56.737Z,96261.19
2023-09-02T09:57:59.757Z,96253.47
2023-09-02T09:59:08.880Z,96259.34
2023-09-02T10:00:15.979Z,96260.63
2023-09-02T10:01:22.578Z,96262.94
2023-09-02T10:02:24.703Z,96262.94
2023-09-02T10:03:35.235Z,96264.97
2023-09-02T10:04:36.826Z,96268.03
2023-09-02T10:05:39.016Z,96264.03
2023-09-02T10:06:40.713Z,96259.81
2023-09-02T10:07:42.546Z,96260.06
2023-09-02T10:08:55.099Z,96259.47
2023-09-02T10:09:59.151Z,96267.31
2023-09-02T10:11:19.115Z,96258.56
2023-09-02T10:12:20.805Z,96262.84
2023-09-02T10:13:22.528Z,96261.03
2023-09-02T10:14:24.103Z,96267.66
2023-09-02T10:15:27.278Z,96261.38
2023-09-02T10:16:29.671Z,96265.88
2023-09-02T10:17:31.388Z,96256.63
2023-09-02T10:18:33.395Z,96269.81
2023-09-02T10:19:35.701Z,96263.28
2023-09-02T10:20:39.518Z,96264.38
2023-09-02T10:21:41.636Z,96270.22
2023-09-02T10:22:43.915Z,96267.94
2023-09-02T10:23:52.362Z,96266.81
2023-09-02T10:25:04.594Z,96270.69
2023-09-02T10:26:33.277Z,96266.31
2023-09-02T10:27:39.635Z,96261.97
2023-09-02T10:28:41.484Z,96263.34
2023-09-02T10:29:44.647Z,96259.53
2023-09-02T10:30:49.274Z,96258.16
2023-09-02T10:31:56.767Z,96257.63
2023-09-02T10:33:10.332Z,96258.59
2023-09-02T10:34:16.826Z,96263.72
2023-09-02T10:35:23.226Z,96253.16
2023-09-02T10:36:28.666Z,96257.13
2023-09-02T10:37:39.498Z,96257.09
2023-09-02T10:38:45.859Z,96259.31
2023-09-02T10:39:52.752Z,96258.28
2023-09-02T10:40:58.512Z,96261.91
2023-09-02T10:42:01.748Z,96265.63
2023-09-02T10:43:03.501Z,96255.25
2023-09-02T10:44:05.705Z,96258.84
2023-09-02T10:45:07.739Z,96251.28
2023-09-02T10:46:09.736Z,96258.84
2023-09-02T10:47:12.282Z,96260.59
2023-09-02T10:48:14.553Z,96249.31
2023-09-02T10:49:16.324Z,96254.13
2023-09-02T10:50:20.103Z,96257.56
2023-09-02T10:51:22.338Z,96260.56
2023-09-02T10:52:23.992Z,96264.53
2023-09-02T10:53:53.371Z,96262.84
2023-09-02T10:55:04.321Z,96264.75
2023-09-02T10:56:05.935Z,96260.16
2023-09-02T10:57:14.894Z,96265.81
2023-09-02T10:58:16.554Z,96266.13
2023-09-02T10:59:44.189Z,96274.53
2023-09-02T11:00:48.925Z,96258.28
2023-09-02T11:01:50.625Z,96261.66
2023-09-02T11:02:53.899Z,96261.75
2023-09-02T11:03:55.943Z,96262.44
2023-09-02T11:04:58.508Z,96261.56
2023-09-02T11:06:07.521Z,96263.56
2023-09-02T11:07:21.654Z,96259.09
2023-09-02T11:08:50.497Z,96260.97
2023-09-02T11:09:55.095Z,96259.69
2023-09-02T11:10:57.016Z,96265.75
2023-09-02T11:12:11.314Z,96256.31
2023-09-02T11:13:12.997Z,96252.34
2023-09-02T11:14:17.728Z,96254.50
2023-09-02T11:15:19.827Z,96254.50
2023-09-02T11:16:21.726Z,96250.03
2023-09-02T11:17:30.833Z,96249.06
2023-09-02T11:18:35.475Z,96245.56
2023-09-02T11:19:58.192Z,96253.81
2023-09-02T11:21:00.044Z,96254.13
2023-09-02T11:22:02.173Z,96243.88
2023-09-02T11:23:05.677Z,96250.81
2023-09-02T11:24:17.257Z,96251.91
2023-09-02T11:25:28.014Z,96254.13
2023-09-02T11:26:29.698Z,96256.72
2023-09-02T11:28:01.946Z,96268.47
2023-09-02T11:29:21.062Z,96255.63
2023-09-02T11:30:27.073Z,96260.81
2023-09-02T11:31:29.794Z,96244.66
2023-09-02T11:32:44.371Z,96259.41
2023-09-02T11:33:49.196Z,96257.44
2023-09-02T11:34:50.832Z,96253.72
2023-09-02T11:35:53.548Z,96254.16
2023-09-02T11:36:56.562Z,96256.38
2023-09-02T11:37:58.434Z,96257.47
2023-09-02T11:39:00.043Z,96258.00
2023-09-02T11:40:15.096Z,96258.75
2023-09-02T11:41:22.817Z,96254.56
2023-09-02T11:42:28.571Z,96253.97
2023-09-02T11:43:32.610Z,96256.50
2023-09-02T11:44:34.652Z,96250.44
2023-09-02T11:45:38.253Z,96252.38
2023-09-02T11:46:40.436Z,96249.88
2023-09-02T11:47:42.209Z,96249.22
2023-09-02T11:48:43.799Z,96247.78
2023-09-02T11:49:45.490Z,96249.69
2023-09-02T11:50:47.197Z,96250.34
2023-09-02T11:51:48.807Z,96244.28
2023-09-02T11:52:54.148Z,96251.91
2023-09-02T11:53:56.604Z,96249.44
2023-09-02T11:54:58.217Z,96249.25
2023-09-02T11:55:59.845Z,96243.69
2023-09-02T11:57:02.117Z,96248.13
2023-09-02T11:58:15.381Z,96242.44
2023-09-02T11:59:21.051Z,96242.69
2023-09-02T12:00:24.266Z,96236.38
2023-09-02T12:01:25.970Z,96246.44
2023-09-02T12:02:27.755Z,96240.28
2023-09-02T12:03:30.029Z,96240.63
2023-09-02T12:04:42.243Z,96242.34
2023-09-02T12:05:50.989Z,96234.28
2023-09-02T12:06:53.589Z,96238.09
2023-09-02T12:07:55.198Z,96240.78
2023-09-02T12:08:57.344Z,96238.88
2023-09-02T12:09:59.024Z,96230.22
2023-09-02T12:11:04.686Z,96232.59
2023-09-02T12:12:07.677Z,96236.00
2023-09-02T12:13:09.992Z,96221.47
2023-09-02T12:14:12.145Z,96230.97
2023-09-02T12:15:18.935Z,96234.69
2023-09-02T12:16:23.336Z,96227.31
2023-09-02T12:17:25.236Z,96229.81
2023-09-02T12:18:27.049Z,96234.97
2023-09-02T12:19:29.701Z,96225.31
2023-09-02T12:20:31.798Z,96235.84
2023-09-02T12:21:35.731Z,96229.09
2023-09-02T12:22:38.385Z,96228.47
2023-09-02T12:23:40.046Z,96234.47